sensor_id;sensor_type;location;lat;lon;timestamp;temperature;humidity
22418;DHT22;11376;50.932;4.442;2024-01-06T00:00:39;7.20;99.90
22418;DHT22;11376;50.932;4.442;2024-01-06T00:03:05;7.20;99.90
22418;DHT22;11376;50.932;4.442;2024-01-06T00:05:30;7.10;99.90
22418;DHT22;11376;50.932;4.442;2024-01-06T00:07:56;7.10;99.90
22418;DHT22;11376;50.932;4.442;2024-01-06T00:10:21;7.10;99.90
22418;DHT22;11376;50.932;4.442;2024-01-06T00:12:47;7.10;99.90
22418;DHT22;11376;50.932;4.442;2024-01-06T00:15:14;7.10;99.90
22418;DHT22;11376;50.932;4.442;2024-01-06T00:17:39;7.10;99.90
22418;DHT22;11376;50.932;4.442;2024-01-06T00:20:06;7.10;99.90
22418;DHT22;11376;50.932;4.442;2024-01-06T00:22:32;7.10;99.90
22418;DHT22;11376;50.932;4.442;2024-01-06T00:24:57;7.20;99.90
22418;DHT22;11376;50.932;4.442;2024-01-06T00:27:23;7.10;99.90
22418;DHT22;11376;50.932;4.442;2024-01-06T00:29:48;7.10;99.90
22418;DHT22;11376;50.932;4.442;2024-01-06T00:32:14;7.10;99.90
22418;DHT22;11376;50.932;4.442;2024-01-06T00:34:40;7.10;99.90
22418;DHT22;11376;50.932;4.442;2024-01-06T00:37:05;7.20;99.90
22418;DHT22;11376;50.932;4.442;2024-01-06T00:39:31;7.20;99.90
22418;DHT22;11376;50.932;4.442;2024-01-06T00:41:57;7.30;99.90
22418;DHT22;11376;50.932;4.442;2024-01-06T00:44:22;7.20;99.90
22418;DHT22;11376;50.932;4.442;2024-01-06T00:46:48;7.10;99.90
22418;DHT22;11376;50.932;4.442;2024-01-06T00:49:13;7.10;99.90
22418;DHT22;11376;50.932;4.442;2024-01-06T00:51:39;7.10;99.90
22418;DHT22;11376;50.932;4.442;2024-01-06T00:54:04;7.10;99.90
22418;DHT22;11376;50.932;4.442;2024-01-06T00:56:30;7.10;99.90
22418;DHT22;11376;50.932;4.442;2024-01-06T00:58:56;7.10;99.90
22418;DHT22;11376;50.932;4.442;2024-01-06T01:01:21;7.10;99.90
22418;DHT22;11376;50.932;4.442;2024-01-06T01:03:47;7.10;99.90
22418;DHT22;11376;50.932;4.442;2024-01-06T01:06:13;7.10;99.90
22418;DHT22;11376;50.932;4.442;2024-01-06T01:08:38;7.20;99.90
22418;DHT22;11376;50.932;4.442;2024-01-06T01:11:04;7.10;99.90
22418;DHT22;11376;50.932;4.442;2024-01-06T01:13:30;7.10;99.90
22418;DHT22;11376;50.932;4.442;2024-01-06T01:15:56;7.00;99.90
22418;DHT22;11376;50.932;4.442;2024-01-06T01:18:21;7.00;99.90
22418;DHT22;11376;50.932;4.442;2024-01-06T01:20:47;7.00;99.90
22418;DHT22;11376;50.932;4.442;2024-01-06T01:23:12;7.10;99.90
22418;DHT22;11376;50.932;4.442;2024-01-06T01:25:38;7.10;99.90
22418;DHT22;11376;50.932;4.442;2024-01-06T01:28:04;7.00;99.90
22418;DHT22;11376;50.932;4.442;2024-01-06T01:30:30;7.00;99.90
22418;DHT22;11376;50.932;4.442;2024-01-06T01:32:55;7.00;99.90
22418;DHT22;11376;50.932;4.442;2024-01-06T01:35:21;7.00;99.90
22418;DHT22;11376;50.932;4.442;2024-01-06T01:37:46;7.00;99.90
22418;DHT22;11376;50.932;4.442;2024-01-06T01:40:12;7.00;99.90
22418;DHT22;11376;50.932;4.442;2024-01-06T01:42:38;7.00;99.90
22418;DHT22;11376;50.932;4.442;2024-01-06T01:45:04;7.10;99.90
22418;DHT22;11376;50.932;4.442;2024-01-06T01:47:30;7.00;99.90
22418;DHT22;11376;50.932;4.442;2024-01-06T01:49:57;7.00;99.90
22418;DHT22;11376;50.932;4.442;2024-01-06T01:52:22;7.00;99.90
22418;DHT22;11376;50.932;4.442;2024-01-06T01:54:49;7.10;99.90
22418;DHT22;11376;50.932;4.442;2024-01-06T01:57:15;7.00;99.90
22418;DHT22;11376;50.932;4.442;2024-01-06T01:59:41;7.10;99.90
22418;DHT22;11376;50.932;4.442;2024-01-06T02:02:08;7.10;99.90
22418;DHT22;11376;50.932;4.442;2024-01-06T02:04:34;7.10;99.90
22418;DHT22;11376;50.932;4.442;2024-01-06T02:07:00;7.10;99.90
22418;DHT22;11376;50.932;4.442;2024-01-06T02:09:26;7.10;99.90
22418;DHT22;11376;50.932;4.442;2024-01-06T02:11:56;7.10;99.90
22418;DHT22;11376;50.932;4.442;2024-01-06T02:14:22;7.20;99.90
22418;DHT22;11376;50.932;4.442;2024-01-06T02:16:47;7.20;99.90
22418;DHT22;11376;50.932;4.442;2024-01-06T02:19:16;7.20;99.90
22418;DHT22;11376;50.932;4.442;2024-01-06T02:21:42;7.20;99.90
22418;DHT22;11376;50.932;4.442;2024-01-06T02:24:09;7.20;99.90
22418;DHT22;11376;50.932;4.442;2024-01-06T02:26:34;7.20;99.90
22418;DHT22;11376;50.932;4.442;2024-01-06T02:29:00;7.20;99.90
22418;DHT22;11376;50.932;4.442;2024-01-06T02:31:27;7.20;99.90
22418;DHT22;11376;50.932;4.442;2024-01-06T02:33:52;7.20;99.90
22418;DHT22;11376;50.932;4.442;2024-01-06T02:36:18;7.20;99.90
22418;DHT22;11376;50.932;4.442;2024-01-06T02:38:44;7.10;99.90
22418;DHT22;11376;50.932;4.442;2024-01-06T02:41:09;7.20;99.90
22418;DHT22;11376;50.932;4.442;2024-01-06T02:43:35;7.20;99.90
22418;DHT22;11376;50.932;4.442;2024-01-06T02:46:00;7.20;99.90
22418;DHT22;11376;50.932;4.442;2024-01-06T02:48:26;7.20;99.90
22418;DHT22;11376;50.932;4.442;2024-01-06T02:50:52;7.20;99.90
22418;DHT22;11376;50.932;4.442;2024-01-06T02:53:17;7.30;99.90
22418;DHT22;11376;50.932;4.442;2024-01-06T02:55:43;7.20;99.90
22418;DHT22;11376;50.932;4.442;2024-01-06T02:58:09;7.30;99.90
22418;DHT22;11376;50.932;4.442;2024-01-06T03:00:34;7.30;99.90
22418;DHT22;11376;50.932;4.442;2024-01-06T03:03:00;7.40;99.90
22418;DHT22;11376;50.932;4.442;2024-01-06T03:05:25;7.30;99.90
22418;DHT22;11376;50.932;4.442;2024-01-06T03:07:51;7.30;99.90
22418;DHT22;11376;50.932;4.442;2024-01-06T03:10:16;7.30;99.90
22418;DHT22;11376;50.932;4.442;2024-01-06T03:12:42;7.30;99.90
22418;DHT22;11376;50.932;4.442;2024-01-06T03:15:08;7.40;99.90
22418;DHT22;11376;50.932;4.442;2024-01-06T03:17:34;7.50;99.90
22418;DHT22;11376;50.932;4.442;2024-01-06T03:19:59;7.50;99.90
22418;DHT22;11376;50.932;4.442;2024-01-06T03:22:25;7.50;99.90
22418;DHT22;11376;50.932;4.442;2024-01-06T03:24:50;7.40;99.90
22418;DHT22;11376;50.932;4.442;2024-01-06T03:27:16;7.40;99.90
22418;DHT22;11376;50.932;4.442;2024-01-06T03:29:42;7.40;99.90
22418;DHT22;11376;50.932;4.442;2024-01-06T03:32:07;7.30;99.90
22418;DHT22;11376;50.932;4.442;2024-01-06T03:34:33;7.40;99.90
22418;DHT22;11376;50.932;4.442;2024-01-06T03:36:58;7.40;99.90
22418;DHT22;11376;50.932;4.442;2024-01-06T03:39:24;7.50;99.90
22418;DHT22;11376;50.932;4.442;2024-01-06T03:41:50;7.60;99.90
22418;DHT22;11376;50.932;4.442;2024-01-06T03:44:15;7.70;99.90
22418;DHT22;11376;50.932;4.442;2024-01-06T03:46:41;7.70;99.90
22418;DHT22;11376;50.932;4.442;2024-01-06T03:49:07;7.80;99.90
22418;DHT22;11376;50.932;4.442;2024-01-06T03:51:32;8.00;99.90
22418;DHT22;11376;50.932;4.442;2024-01-06T03:53:58;8.00;99.90
22418;DHT22;11376;50.932;4.442;2024-01-06T03:56:23;8.00;99.90
22418;DHT22;11376;50.932;4.442;2024-01-06T03:58:49;8.00;99.90
22418;DHT22;11376;50.932;4.442;2024-01-06T04:01:14;8.00;99.90
22418;DHT22;11376;50.932;4.442;2024-01-06T04:03:40;8.10;99.90
22418;DHT22;11376;50.932;4.442;2024-01-06T04:06:06;8.30;99.90
22418;DHT22;11376;50.932;4.442;2024-01-06T04:08:32;8.20;99.90
22418;DHT22;11376;50.932;4.442;2024-01-06T04:10:57;8.10;99.90
22418;DHT22;11376;50.932;4.442;2024-01-06T04:13:23;8.00;99.90
22418;DHT22;11376;50.932;4.442;2024-01-06T04:15:50;8.00;99.90
22418;DHT22;11376;50.932;4.442;2024-01-06T04:18:16;7.90;99.90
22418;DHT22;11376;50.932;4.442;2024-01-06T04:20:42;7.90;99.90
22418;DHT22;11376;50.932;4.442;2024-01-06T04:23:07;7.90;99.90
22418;DHT22;11376;50.932;4.442;2024-01-06T04:25:33;7.90;99.90
22418;DHT22;11376;50.932;4.442;2024-01-06T04:27:58;7.80;99.90
22418;DHT22;11376;50.932;4.442;2024-01-06T04:30:24;7.80;99.90
22418;DHT22;11376;50.932;4.442;2024-01-06T04:32:51;7.90;99.90
22418;DHT22;11376;50.932;4.442;2024-01-06T04:35:17;8.00;99.90
22418;DHT22;11376;50.932;4.442;2024-01-06T04:37:43;8.00;99.90
22418;DHT22;11376;50.932;4.442;2024-01-06T04:40:09;8.00;99.90
22418;DHT22;11376;50.932;4.442;2024-01-06T04:42:35;8.10;99.90
22418;DHT22;11376;50.932;4.442;2024-01-06T04:45:01;8.10;99.90
22418;DHT22;11376;50.932;4.442;2024-01-06T04:47:26;8.20;99.90
22418;DHT22;11376;50.932;4.442;2024-01-06T04:49:53;8.20;99.90
22418;DHT22;11376;50.932;4.442;2024-01-06T04:52:18;8.20;99.90
22418;DHT22;11376;50.932;4.442;2024-01-06T04:54:44;8.20;99.90
22418;DHT22;11376;50.932;4.442;2024-01-06T04:57:10;8.20;99.90
22418;DHT22;11376;50.932;4.442;2024-01-06T04:59:35;8.20;99.90
22418;DHT22;11376;50.932;4.442;2024-01-06T05:02:01;8.30;99.90
22418;DHT22;11376;50.932;4.442;2024-01-06T05:04:27;8.20;99.90
22418;DHT22;11376;50.932;4.442;2024-01-06T05:06:52;8.20;99.90
22418;DHT22;11376;50.932;4.442;2024-01-06T05:09:18;8.20;99.90
22418;DHT22;11376;50.932;4.442;2024-01-06T05:11:44;8.20;99.90
22418;DHT22;11376;50.932;4.442;2024-01-06T05:14:10;8.20;99.90
22418;DHT22;11376;50.932;4.442;2024-01-06T05:16:36;8.20;99.90
22418;DHT22;11376;50.932;4.442;2024-01-06T05:19:02;8.20;99.90
22418;DHT22;11376;50.932;4.442;2024-01-06T05:21:28;8.10;99.90
22418;DHT22;11376;50.932;4.442;2024-01-06T05:23:53;8.10;99.90
22418;DHT22;11376;50.932;4.442;2024-01-06T05:26:19;8.00;99.90
22418;DHT22;11376;50.932;4.442;2024-01-06T05:28:45;8.00;99.90
22418;DHT22;11376;50.932;4.442;2024-01-06T05:31:10;7.80;99.90
22418;DHT22;11376;50.932;4.442;2024-01-06T05:33:36;7.70;99.90
22418;DHT22;11376;50.932;4.442;2024-01-06T05:36:02;7.70;99.90
22418;DHT22;11376;50.932;4.442;2024-01-06T05:38:27;7.60;99.90
22418;DHT22;11376;50.932;4.442;2024-01-06T05:40:53;7.60;99.90
22418;DHT22;11376;50.932;4.442;2024-01-06T05:43:19;7.60;99.90
22418;DHT22;11376;50.932;4.442;2024-01-06T05:45:44;7.60;99.90
22418;DHT22;11376;50.932;4.442;2024-01-06T05:48:10;7.60;99.90
22418;DHT22;11376;50.932;4.442;2024-01-06T05:50:38;7.50;99.90
22418;DHT22;11376;50.932;4.442;2024-01-06T05:53:05;7.50;99.90
22418;DHT22;11376;50.932;4.442;2024-01-06T05:55:31;7.50;99.90
22418;DHT22;11376;50.932;4.442;2024-01-06T05:57:56;7.50;99.90
22418;DHT22;11376;50.932;4.442;2024-01-06T06:00:22;7.40;99.90
22418;DHT22;11376;50.932;4.442;2024-01-06T06:02:48;7.30;99.90
22418;DHT22;11376;50.932;4.442;2024-01-06T06:05:14;7.20;99.90
22418;DHT22;11376;50.932;4.442;2024-01-06T06:07:39;7.30;99.90
22418;DHT22;11376;50.932;4.442;2024-01-06T06:10:09;7.30;99.90
22418;DHT22;11376;50.932;4.442;2024-01-06T06:12:35;7.20;99.90
22418;DHT22;11376;50.932;4.442;2024-01-06T06:15:02;7.30;99.90
22418;DHT22;11376;50.932;4.442;2024-01-06T06:17:30;7.20;99.90
22418;DHT22;11376;50.932;4.442;2024-01-06T06:19:56;7.20;99.90
22418;DHT22;11376;50.932;4.442;2024-01-06T06:22:22;7.10;99.90
22418;DHT22;11376;50.932;4.442;2024-01-06T06:24:48;7.10;99.90
22418;DHT22;11376;50.932;4.442;2024-01-06T06:27:14;7.00;99.90
22418;DHT22;11376;50.932;4.442;2024-01-06T06:29:39;7.10;99.90
22418;DHT22;11376;50.932;4.442;2024-01-06T06:32:05;7.10;99.90
22418;DHT22;11376;50.932;4.442;2024-01-06T06:34:31;7.00;99.90
22418;DHT22;11376;50.932;4.442;2024-01-06T06:36:56;7.10;99.90
22418;DHT22;11376;50.932;4.442;2024-01-06T06:39:22;7.10;99.90
22418;DHT22;11376;50.932;4.442;2024-01-06T06:41:48;7.10;99.90
22418;DHT22;11376;50.932;4.442;2024-01-06T06:44:14;7.10;99.90
22418;DHT22;11376;50.932;4.442;2024-01-06T06:46:39;7.00;99.90
22418;DHT22;11376;50.932;4.442;2024-01-06T06:49:05;7.00;99.90
22418;DHT22;11376;50.932;4.442;2024-01-06T06:51:30;7.00;99.90
22418;DHT22;11376;50.932;4.442;2024-01-06T06:53:56;6.90;99.90
22418;DHT22;11376;50.932;4.442;2024-01-06T06:56:22;6.90;99.90
22418;DHT22;11376;50.932;4.442;2024-01-06T06:58:48;6.90;99.90
22418;DHT22;11376;50.932;4.442;2024-01-06T07:01:16;6.80;99.90
22418;DHT22;11376;50.932;4.442;2024-01-06T07:03:42;6.80;99.90
22418;DHT22;11376;50.932;4.442;2024-01-06T07:06:08;6.70;99.90
22418;DHT22;11376;50.932;4.442;2024-01-06T07:08:33;6.70;99.90
22418;DHT22;11376;50.932;4.442;2024-01-06T07:11:00;6.70;99.90
22418;DHT22;11376;50.932;4.442;2024-01-06T07:13:25;6.80;99.90
22418;DHT22;11376;50.932;4.442;2024-01-06T07:15:52;6.90;99.90
22418;DHT22;11376;50.932;4.442;2024-01-06T07:18:17;6.90;99.90
22418;DHT22;11376;50.932;4.442;2024-01-06T07:20:44;6.90;99.90
22418;DHT22;11376;50.932;4.442;2024-01-06T07:23:10;6.90;99.90
22418;DHT22;11376;50.932;4.442;2024-01-06T07:25:35;7.00;99.90
22418;DHT22;11376;50.932;4.442;2024-01-06T07:28:01;7.00;99.90
22418;DHT22;11376;50.932;4.442;2024-01-06T07:30:27;7.00;99.90
22418;DHT22;11376;50.932;4.442;2024-01-06T07:32:53;6.90;99.90
22418;DHT22;11376;50.932;4.442;2024-01-06T07:35:18;6.90;99.90
22418;DHT22;11376;50.932;4.442;2024-01-06T07:37:44;6.90;99.90
22418;DHT22;11376;50.932;4.442;2024-01-06T07:40:10;6.90;99.90
22418;DHT22;11376;50.932;4.442;2024-01-06T07:42:41;6.90;99.90
22418;DHT22;11376;50.932;4.442;2024-01-06T07:45:07;7.00;99.90
22418;DHT22;11376;50.932;4.442;2024-01-06T07:47:32;6.90;99.90
22418;DHT22;11376;50.932;4.442;2024-01-06T07:49:58;7.00;99.90
22418;DHT22;11376;50.932;4.442;2024-01-06T07:52:24;6.90;99.90
22418;DHT22;11376;50.932;4.442;2024-01-06T07:54:50;6.90;99.90
22418;DHT22;11376;50.932;4.442;2024-01-06T07:57:16;6.90;99.90
22418;DHT22;11376;50.932;4.442;2024-01-06T07:59:41;7.00;99.90
22418;DHT22;11376;50.932;4.442;2024-01-06T08:02:07;6.90;99.90
22418;DHT22;11376;50.932;4.442;2024-01-06T08:04:33;6.90;99.90
22418;DHT22;11376;50.932;4.442;2024-01-06T08:06:58;6.90;99.90
22418;DHT22;11376;50.932;4.442;2024-01-06T08:09:24;6.80;99.90
22418;DHT22;11376;50.932;4.442;2024-01-06T08:11:49;6.80;99.90
22418;DHT22;11376;50.932;4.442;2024-01-06T08:14:15;6.70;99.90
22418;DHT22;11376;50.932;4.442;2024-01-06T08:16:43;6.70;99.90
22418;DHT22;11376;50.932;4.442;2024-01-06T08:19:09;6.70;99.90
22418;DHT22;11376;50.932;4.442;2024-01-06T08:21:34;6.80;99.90
22418;DHT22;11376;50.932;4.442;2024-01-06T08:24:00;6.80;99.90
22418;DHT22;11376;50.932;4.442;2024-01-06T08:26:26;6.70;99.90
22418;DHT22;11376;50.932;4.442;2024-01-06T08:28:52;6.70;99.90
22418;DHT22;11376;50.932;4.442;2024-01-06T08:31:18;6.80;99.90
22418;DHT22;11376;50.932;4.442;2024-01-06T08:33:43;6.80;99.90
22418;DHT22;11376;50.932;4.442;2024-01-06T08:36:09;6.80;99.90
22418;DHT22;11376;50.932;4.442;2024-01-06T08:38:35;6.80;99.90
22418;DHT22;11376;50.932;4.442;2024-01-06T08:41:01;6.80;99.90
22418;DHT22;11376;50.932;4.442;2024-01-06T08:43:27;6.80;99.90
22418;DHT22;11376;50.932;4.442;2024-01-06T08:45:53;6.70;99.90
22418;DHT22;11376;50.932;4.442;2024-01-06T08:48:18;6.60;99.90
22418;DHT22;11376;50.932;4.442;2024-01-06T08:50:44;6.50;99.90
22418;DHT22;11376;50.932;4.442;2024-01-06T08:53:13;6.60;99.90
22418;DHT22;11376;50.932;4.442;2024-01-06T08:55:39;6.60;99.90
22418;DHT22;11376;50.932;4.442;2024-01-06T08:58:04;6.70;99.90
22418;DHT22;11376;50.932;4.442;2024-01-06T09:00:31;6.80;99.90
22418;DHT22;11376;50.932;4.442;2024-01-06T09:02:56;6.80;99.90
22418;DHT22;11376;50.932;4.442;2024-01-06T09:05:22;6.80;99.90
22418;DHT22;11376;50.932;4.442;2024-01-06T09:07:47;6.90;99.90
22418;DHT22;11376;50.932;4.442;2024-01-06T09:10:17;6.90;99.90
22418;DHT22;11376;50.932;4.442;2024-01-06T09:12:42;6.70;99.90
22418;DHT22;11376;50.932;4.442;2024-01-06T09:15:08;6.70;99.90
22418;DHT22;11376;50.932;4.442;2024-01-06T09:17:34;6.70;99.90
22418;DHT22;11376;50.932;4.442;2024-01-06T09:20:00;6.80;99.90
22418;DHT22;11376;50.932;4.442;2024-01-06T09:22:26;6.60;99.90
22418;DHT22;11376;50.932;4.442;2024-01-06T09:24:52;6.70;99.90
22418;DHT22;11376;50.932;4.442;2024-01-06T09:27:19;6.60;99.90
22418;DHT22;11376;50.932;4.442;2024-01-06T09:29:44;6.50;99.90
22418;DHT22;11376;50.932;4.442;2024-01-06T09:32:10;6.40;99.90
22418;DHT22;11376;50.932;4.442;2024-01-06T09:34:36;6.40;99.90
22418;DHT22;11376;50.932;4.442;2024-01-06T09:37:02;6.30;99.90
22418;DHT22;11376;50.932;4.442;2024-01-06T09:39:28;6.30;99.90
22418;DHT22;11376;50.932;4.442;2024-01-06T09:41:56;6.40;99.90
22418;DHT22;11376;50.932;4.442;2024-01-06T09:44:21;6.60;99.90
22418;DHT22;11376;50.932;4.442;2024-01-06T09:46:47;6.60;99.90
22418;DHT22;11376;50.932;4.442;2024-01-06T09:49:14;6.60;99.90
22418;DHT22;11376;50.932;4.442;2024-01-06T09:51:40;6.60;99.90
22418;DHT22;11376;50.932;4.442;2024-01-06T09:54:09;6.60;99.90
22418;DHT22;11376;50.932;4.442;2024-01-06T09:56:35;6.60;99.90
22418;DHT22;11376;50.932;4.442;2024-01-06T09:59:01;6.60;99.90
22418;DHT22;11376;50.932;4.442;2024-01-06T10:01:27;6.70;99.90
22418;DHT22;11376;50.932;4.442;2024-01-06T10:03:53;6.70;99.90
22418;DHT22;11376;50.932;4.442;2024-01-06T10:06:19;6.70;99.90
22418;DHT22;11376;50.932;4.442;2024-01-06T10:08:50;6.70;99.90
22418;DHT22;11376;50.932;4.442;2024-01-06T10:11:16;6.50;99.90
22418;DHT22;11376;50.932;4.442;2024-01-06T10:13:42;6.40;99.90
22418;DHT22;11376;50.932;4.442;2024-01-06T10:16:08;6.50;99.90
22418;DHT22;11376;50.932;4.442;2024-01-06T10:18:34;6.50;99.90
22418;DHT22;11376;50.932;4.442;2024-01-06T10:21:04;6.50;99.90
22418;DHT22;11376;50.932;4.442;2024-01-06T10:23:32;6.30;99.90
22418;DHT22;11376;50.932;4.442;2024-01-06T10:25:58;6.20;99.90
22418;DHT22;11376;50.932;4.442;2024-01-06T10:28:24;6.30;99.90
22418;DHT22;11376;50.932;4.442;2024-01-06T10:30:52;6.40;99.90
22418;DHT22;11376;50.932;4.442;2024-01-06T10:33:22;6.40;99.90
22418;DHT22;11376;50.932;4.442;2024-01-06T10:35:49;6.40;99.90
22418;DHT22;11376;50.932;4.442;2024-01-06T10:38:14;6.50;99.90
22418;DHT22;11376;50.932;4.442;2024-01-06T10:40:59;6.50;99.90
22418;DHT22;11376;50.932;4.442;2024-01-06T10:43:28;6.50;99.90
22418;DHT22;11376;50.932;4.442;2024-01-06T10:46:00;6.60;99.90
22418;DHT22;11376;50.932;4.442;2024-01-06T10:48:32;6.60;99.90
22418;DHT22;11376;50.932;4.442;2024-01-06T10:50:58;6.50;99.90
22418;DHT22;11376;50.932;4.442;2024-01-06T10:53:26;6.40;99.90
22418;DHT22;11376;50.932;4.442;2024-01-06T10:55:53;6.40;99.90
22418;DHT22;11376;50.932;4.442;2024-01-06T10:58:19;6.30;99.90
22418;DHT22;11376;50.932;4.442;2024-01-06T11:00:45;6.30;99.90
22418;DHT22;11376;50.932;4.442;2024-01-06T11:03:13;6.30;99.90
22418;DHT22;11376;50.932;4.442;2024-01-06T11:05:41;6.30;99.90
22418;DHT22;11376;50.932;4.442;2024-01-06T11:08:07;6.40;99.90
22418;DHT22;11376;50.932;4.442;2024-01-06T11:10:35;6.40;99.90
22418;DHT22;11376;50.932;4.442;2024-01-06T11:13:28;6.40;99.90
22418;DHT22;11376;50.932;4.442;2024-01-06T11:15:54;6.40;99.90
22418;DHT22;11376;50.932;4.442;2024-01-06T11:18:39;6.30;99.90
22418;DHT22;11376;50.932;4.442;2024-01-06T11:21:18;6.40;99.90
22418;DHT22;11376;50.932;4.442;2024-01-06T11:24:19;6.40;99.90
22418;DHT22;11376;50.932;4.442;2024-01-06T11:26:55;6.50;99.90
22418;DHT22;11376;50.932;4.442;2024-01-06T11:29:21;6.40;99.90
22418;DHT22;11376;50.932;4.442;2024-01-06T11:32:25;6.30;99.90
22418;DHT22;11376;50.932;4.442;2024-01-06T11:34:53;6.20;99.90
22418;DHT22;11376;50.932;4.442;2024-01-06T11:42:52;6.10;99.90
22418;DHT22;11376;50.932;4.442;2024-01-06T11:45:21;6.00;99.90
22418;DHT22;11376;50.932;4.442;2024-01-06T11:47:48;6.00;99.90
22418;DHT22;11376;50.932;4.442;2024-01-06T11:50:17;6.10;99.90
22418;DHT22;11376;50.932;4.442;2024-01-06T11:52:43;6.10;99.90
22418;DHT22;11376;50.932;4.442;2024-01-06T11:55:08;6.20;99.90
22418;DHT22;11376;50.932;4.442;2024-01-06T11:57:35;6.30;99.90
22418;DHT22;11376;50.932;4.442;2024-01-06T12:00:00;6.30;99.90
22418;DHT22;11376;50.932;4.442;2024-01-06T12:02:26;6.40;99.90
22418;DHT22;11376;50.932;4.442;2024-01-06T12:04:52;6.40;99.90
22418;DHT22;11376;50.932;4.442;2024-01-06T12:07:19;6.40;99.90
22418;DHT22;11376;50.932;4.442;2024-01-06T12:09:46;6.40;99.90
22418;DHT22;11376;50.932;4.442;2024-01-06T12:12:16;6.40;99.90
22418;DHT22;11376;50.932;4.442;2024-01-06T12:14:42;6.40;99.90
22418;DHT22;11376;50.932;4.442;2024-01-06T12:17:09;6.50;99.90
22418;DHT22;11376;50.932;4.442;2024-01-06T12:19:34;6.70;99.90
22418;DHT22;11376;50.932;4.442;2024-01-06T12:22:01;6.60;99.90
22418;DHT22;11376;50.932;4.442;2024-01-06T12:24:27;6.60;99.90
22418;DHT22;11376;50.932;4.442;2024-01-06T12:26:55;6.60;99.90
22418;DHT22;11376;50.932;4.442;2024-01-06T12:29:21;6.60;99.90
22418;DHT22;11376;50.932;4.442;2024-01-06T12:31:47;6.60;99.90
22418;DHT22;11376;50.932;4.442;2024-01-06T12:34:13;6.60;99.90
22418;DHT22;11376;50.932;4.442;2024-01-06T12:36:40;6.60;99.90
22418;DHT22;11376;50.932;4.442;2024-01-06T12:39:10;6.50;99.90
22418;DHT22;11376;50.932;4.442;2024-01-06T12:41:42;6.60;99.90
22418;DHT22;11376;50.932;4.442;2024-01-06T12:44:08;6.50;99.90
22418;DHT22;11376;50.932;4.442;2024-01-06T12:46:35;6.50;99.90
22418;DHT22;11376;50.932;4.442;2024-01-06T12:49:01;6.50;99.90
22418;DHT22;11376;50.932;4.442;2024-01-06T12:51:26;6.50;99.90
22418;DHT22;11376;50.932;4.442;2024-01-06T12:53:52;6.60;99.90
22418;DHT22;11376;50.932;4.442;2024-01-06T12:56:17;6.50;99.90
22418;DHT22;11376;50.932;4.442;2024-01-06T12:58:43;6.60;99.90
22418;DHT22;11376;50.932;4.442;2024-01-06T13:01:10;6.60;99.90
22418;DHT22;11376;50.932;4.442;2024-01-06T13:03:35;6.60;99.90
22418;DHT22;11376;50.932;4.442;2024-01-06T13:06:01;6.70;99.90
22418;DHT22;11376;50.932;4.442;2024-01-06T13:08:28;6.80;99.90
22418;DHT22;11376;50.932;4.442;2024-01-06T13:10:54;6.70;99.90
22418;DHT22;11376;50.932;4.442;2024-01-06T13:13:20;6.80;99.90
22418;DHT22;11376;50.932;4.442;2024-01-06T13:15:45;6.90;99.90
22418;DHT22;11376;50.932;4.442;2024-01-06T13:18:12;6.90;99.90
22418;DHT22;11376;50.932;4.442;2024-01-06T13:20:38;6.90;99.90
22418;DHT22;11376;50.932;4.442;2024-01-06T13:23:09;6.90;99.90
22418;DHT22;11376;50.932;4.442;2024-01-06T13:25:37;6.80;99.90
22418;DHT22;11376;50.932;4.442;2024-01-06T13:28:07;6.70;99.90
22418;DHT22;11376;50.932;4.442;2024-01-06T13:30:33;6.70;99.90
22418;DHT22;11376;50.932;4.442;2024-01-06T13:32:59;6.40;99.90
22418;DHT22;11376;50.932;4.442;2024-01-06T13:35:25;6.30;99.90
22418;DHT22;11376;50.932;4.442;2024-01-06T13:37:52;6.30;99.90
22418;DHT22;11376;50.932;4.442;2024-01-06T13:40:18;6.30;99.90
22418;DHT22;11376;50.932;4.442;2024-01-06T13:42:50;6.20;99.90
22418;DHT22;11376;50.932;4.442;2024-01-06T13:45:17;6.20;99.90
22418;DHT22;11376;50.932;4.442;2024-01-06T13:47:42;6.10;99.90
22418;DHT22;11376;50.932;4.442;2024-01-06T13:50:14;6.10;99.90
22418;DHT22;11376;50.932;4.442;2024-01-06T13:52:41;6.20;99.90
22418;DHT22;11376;50.932;4.442;2024-01-06T13:55:07;6.30;99.90
22418;DHT22;11376;50.932;4.442;2024-01-06T13:57:34;6.30;99.90
22418;DHT22;11376;50.932;4.442;2024-01-06T14:00:00;6.30;99.90
22418;DHT22;11376;50.932;4.442;2024-01-06T14:02:26;6.30;99.90
22418;DHT22;11376;50.932;4.442;2024-01-06T14:04:52;6.30;99.90
22418;DHT22;11376;50.932;4.442;2024-01-06T14:07:18;6.20;99.90
22418;DHT22;11376;50.932;4.442;2024-01-06T14:09:45;6.20;99.90
22418;DHT22;11376;50.932;4.442;2024-01-06T14:12:11;6.30;99.90
22418;DHT22;11376;50.932;4.442;2024-01-06T14:14:36;6.30;99.90
22418;DHT22;11376;50.932;4.442;2024-01-06T14:17:02;6.30;99.90
22418;DHT22;11376;50.932;4.442;2024-01-06T14:19:28;6.30;99.90
22418;DHT22;11376;50.932;4.442;2024-01-06T14:21:54;6.40;99.90
22418;DHT22;11376;50.932;4.442;2024-01-06T14:24:19;6.40;99.90
22418;DHT22;11376;50.932;4.442;2024-01-06T14:26:54;6.40;99.90
22418;DHT22;11376;50.932;4.442;2024-01-06T14:29:21;6.40;99.90
22418;DHT22;11376;50.932;4.442;2024-01-06T14:31:48;6.30;99.90
22418;DHT22;11376;50.932;4.442;2024-01-06T14:34:13;6.30;99.90
22418;DHT22;11376;50.932;4.442;2024-01-06T14:36:39;6.30;99.90
22418;DHT22;11376;50.932;4.442;2024-01-06T14:39:16;6.40;99.90
22418;DHT22;11376;50.932;4.442;2024-01-06T14:41:41;6.30;99.90
22418;DHT22;11376;50.932;4.442;2024-01-06T14:44:07;6.30;99.90
22418;DHT22;11376;50.932;4.442;2024-01-06T14:46:33;6.30;99.90
22418;DHT22;11376;50.932;4.442;2024-01-06T14:49:01;6.30;99.90
22418;DHT22;11376;50.932;4.442;2024-01-06T14:51:26;6.30;99.90
22418;DHT22;11376;50.932;4.442;2024-01-06T14:53:52;6.30;99.90
22418;DHT22;11376;50.932;4.442;2024-01-06T14:56:18;6.10;99.90
22418;DHT22;11376;50.932;4.442;2024-01-06T14:58:43;6.10;99.90
22418;DHT22;11376;50.932;4.442;2024-01-06T15:01:09;6.20;99.90
22418;DHT22;11376;50.932;4.442;2024-01-06T15:03:34;6.30;99.90
22418;DHT22;11376;50.932;4.442;2024-01-06T15:06:00;6.10;99.90
22418;DHT22;11376;50.932;4.442;2024-01-06T15:08:26;6.20;99.90
22418;DHT22;11376;50.932;4.442;2024-01-06T15:10:52;6.10;99.90
22418;DHT22;11376;50.932;4.442;2024-01-06T15:13:18;6.10;99.90
22418;DHT22;11376;50.932;4.442;2024-01-06T15:15:43;6.00;99.90
22418;DHT22;11376;50.932;4.442;2024-01-06T15:18:10;6.00;99.90
22418;DHT22;11376;50.932;4.442;2024-01-06T15:20:36;6.00;99.90
22418;DHT22;11376;50.932;4.442;2024-01-06T15:23:01;6.10;99.90
22418;DHT22;11376;50.932;4.442;2024-01-06T15:25:27;6.10;99.90
22418;DHT22;11376;50.932;4.442;2024-01-06T15:27:53;6.10;99.90
22418;DHT22;11376;50.932;4.442;2024-01-06T15:30:18;6.00;99.90
22418;DHT22;11376;50.932;4.442;2024-01-06T15:32:45;6.00;99.90
22418;DHT22;11376;50.932;4.442;2024-01-06T15:35:11;6.10;99.90
22418;DHT22;11376;50.932;4.442;2024-01-06T15:37:37;6.10;99.90
22418;DHT22;11376;50.932;4.442;2024-01-06T15:40:03;6.00;99.90
22418;DHT22;11376;50.932;4.442;2024-01-06T15:42:29;6.00;99.90
22418;DHT22;11376;50.932;4.442;2024-01-06T15:44:55;6.00;99.90